Time;durP1;ratioP1;P1;durP2;ratioP2;P2;SDS_P1;SDS_P2;PMS_P1;PMS_P2;Temp;Humidity;BMP_temperature;BMP_pressure;BME280_temperature;BME280_humidity;BME280_pressure;Samples;Min_cycle;Max_cycle;Signal;HPM_P1;HPM_P2
2021/01/19 00:01:27;;;;;;;163.13;43.53;;;-14.40;99.90;;;;;;4349688;33;20353;-70
2021/01/19 00:03:54;;;;;;;159.00;44.63;;;-14.30;99.90;;;;;;4350777;33;20191;-70
2021/01/19 00:06:21;;;;;;;162.50;42.83;;;-14.20;99.90;;;;;;4350243;33;20149;-70
2021/01/19 00:08:48;;;;;;;157.23;43.10;;;-14.20;99.90;;;;;;4349465;33;20172;-70
2021/01/19 00:11:15;;;;;;;152.80;42.17;;;-14.20;99.90;;;;;;4349881;33;20171;-70
2021/01/19 00:13:42;;;;;;;157.17;43.60;;;-14.20;99.90;;;;;;4350700;33;20232;-70
2021/01/19 00:16:09;;;;;;;157.67;41.63;;;-14.30;99.90;;;;;;4349356;33;20152;-70
2021/01/19 00:18:36;;;;;;;140.77;41.23;;;-14.30;99.90;;;;;;4349699;33;20161;-70
2021/01/19 00:21:04;;;;;;;151.63;40.43;;;-14.30;99.90;;;;;;4349500;33;20199;-70
2021/01/19 00:23:32;;;;;;;143.47;41.07;;;-14.40;99.90;;;;;;4348948;33;20153;-70
2021/01/19 00:25:59;;;;;;;143.67;42.53;;;-14.40;99.90;;;;;;4349748;33;20179;-70
2021/01/19 00:28:26;;;;;;;138.87;39.43;;;-14.40;99.90;;;;;;4335533;33;20195;-70
2021/01/19 00:30:53;;;;;;;146.00;41.20;;;-14.40;99.90;;;;;;4348796;33;20156;-70
2021/01/19 00:33:20;;;;;;;145.80;41.90;;;-14.30;99.90;;;;;;4349370;33;20198;-70
2021/01/19 00:35:46;;;;;;;153.63;41.50;;;-14.30;99.90;;;;;;4349106;33;20167;-71
2021/01/19 00:38:14;;;;;;;145.47;43.20;;;-14.30;99.90;;;;;;4349259;33;20218;-70
2021/01/19 00:40:41;;;;;;;154.77;43.07;;;-14.30;99.90;;;;;;4349335;33;20164;-71
2021/01/19 00:43:08;;;;;;;147.57;41.63;;;-14.20;99.90;;;;;;4348775;33;20148;-70
2021/01/19 00:45:35;;;;;;;146.83;41.60;;;-14.10;99.90;;;;;;4336261;33;20152;-70
2021/01/19 00:48:02;;;;;;;137.43;40.93;;;-14.10;99.90;;;;;;4349544;33;20188;-70
2021/01/19 00:50:29;;;;;;;149.73;42.53;;;-14.00;99.90;;;;;;4349970;33;20170;-70
2021/01/19 00:52:56;;;;;;;143.23;41.67;;;-14.00;99.90;;;;;;4348904;33;20167;-70
2021/01/19 00:55:24;;;;;;;140.77;40.33;;;-14.00;99.90;;;;;;4348853;33;20191;-70
2021/01/19 00:57:51;;;;;;;141.83;41.60;;;-14.10;99.90;;;;;;4349438;33;20190;-70
2021/01/19 01:00:19;;;;;;;148.40;41.00;;;-14.10;99.90;;;;;;4349744;33;20179;-70
2021/01/19 01:02:46;;;;;;;147.87;42.00;;;-14.10;99.90;;;;;;4349812;33;20462;-70
2021/01/19 01:05:13;;;;;;;141.23;42.03;;;-14.10;99.90;;;;;;4349308;33;20144;-70
2021/01/19 01:07:42;;;;;;;135.00;39.43;;;-14.10;99.90;;;;;;4349314;33;20160;-70
2021/01/19 01:10:15;;;;;;;145.47;41.03;;;-14.10;99.90;;;;;;4348801;33;20188;-70
2021/01/19 01:12:45;;;;;;;172.03;45.90;;;-14.00;99.90;;;;;;4348831;33;20175;-70
2021/01/19 01:15:18;;;;;;;142.70;41.17;;;-14.00;99.90;;;;;;4349219;33;20196;-71
2021/01/19 01:17:45;;;;;;;140.23;39.30;;;-13.90;99.90;;;;;;4348794;33;20179;-71
2021/01/19 01:20:12;;;;;;;129.67;39.17;;;-14.00;99.90;;;;;;4348919;33;20156;-71
2021/01/19 01:22:43;;;;;;;144.00;40.37;;;-14.00;99.90;;;;;;4349154;33;20160;-71
2021/01/19 01:25:12;;;;;;;146.03;41.20;;;-13.90;99.90;;;;;;4350018;33;20148;-70
2021/01/19 01:27:40;;;;;;;135.43;38.87;;;-14.00;99.90;;;;;;4348695;33;20175;-70
2021/01/19 01:30:10;;;;;;;147.13;40.33;;;-13.90;99.90;;;;;;4348557;33;20152;-71
2021/01/19 01:32:39;;;;;;;132.83;39.63;;;-13.90;99.90;;;;;;4349053;33;20210;-71
2021/01/19 01:35:07;;;;;;;129.93;37.33;;;-13.90;99.90;;;;;;4348501;33;20507;-70
2021/01/19 01:37:34;;;;;;;141.67;39.90;;;-13.90;99.90;;;;;;4348994;33;20148;-70
2021/01/19 01:40:02;;;;;;;126.90;38.97;;;-14.00;99.90;;;;;;4349118;33;20523;-70
2021/01/19 01:42:29;;;;;;;149.13;41.47;;;-14.10;99.90;;;;;;4348358;33;20221;-70
2021/01/19 01:44:55;;;;;;;136.27;38.93;;;-14.00;99.90;;;;;;4348548;33;20152;-70
2021/01/19 01:47:25;;;;;;;142.20;40.60;;;-13.90;99.90;;;;;;4351269;33;20149;-70
2021/01/19 01:49:54;;;;;;;143.47;39.67;;;-13.90;99.90;;;;;;4352058;33;20148;-70
2021/01/19 01:52:22;;;;;;;132.77;38.57;;;-13.80;99.90;;;;;;4352815;33;20156;-70
2021/01/19 01:54:50;;;;;;;136.50;38.53;;;-13.80;99.90;;;;;;4351415;33;20222;-70
2021/01/19 01:57:18;;;;;;;141.13;38.70;;;-13.80;99.90;;;;;;4351694;33;20156;-69
2021/01/19 01:59:49;;;;;;;125.47;39.67;;;-13.80;99.90;;;;;;4351695;33;20141;-70
2021/01/19 02:02:17;;;;;;;134.47;40.57;;;-13.80;99.90;;;;;;4351286;33;20498;-70
2021/01/19 02:04:44;;;;;;;137.93;37.03;;;-13.70;99.90;;;;;;4351156;33;20181;-70
2021/01/19 02:07:40;;;;;;;136.80;39.90;;;-13.70;99.90;;;;;;4352430;33;20161;-70
2021/01/19 02:10:28;;;;;;;133.17;39.70;;;-13.70;99.90;;;;;;4351595;33;20146;-70
2021/01/19 02:13:03;;;;;;;131.47;40.27;;;-13.80;99.90;;;;;;4352572;33;20196;-70
2021/01/19 02:15:38;;;;;;;141.40;37.93;;;-13.70;99.90;;;;;;4351827;33;20186;-70
2021/01/19 02:18:26;;;;;;;134.37;37.23;;;-13.80;99.90;;;;;;4351668;33;20196;-70
2021/01/19 02:21:20;;;;;;;128.87;37.43;;;-13.70;99.90;;;;;;4351830;33;20144;-70
2021/01/19 02:24:31;;;;;;;143.43;40.57;;;-13.70;99.90;;;;;;4351550;33;20210;-70
2021/01/19 02:27:37;;;;;;;135.60;40.67;;;-13.70;99.90;;;;;;4319488;33;20234;-70
2021/01/19 02:30:35;;;;;;;123.33;38.60;;;-13.60;99.90;;;;;;4318561;33;20243;-70
2021/01/19 02:33:34;;;;;;;128.83;38.30;;;-13.70;99.90;;;;;;4290912;33;20217;-70
2021/01/19 02:36:38;;;;;;;127.13;36.90;;;-13.60;99.90;;;;;;4288783;33;20594;-70
2021/01/19 02:39:19;;;;;;;138.50;38.67;;;-13.60;99.90;;;;;;4291209;33;20192;-70
2021/01/19 02:42:21;;;;;;;125.97;37.67;;;-13.50;99.90;;;;;;4233591;34;20180;-70
2021/01/19 02:45:05;;;;;;;128.97;37.47;;;-13.40;99.90;;;;;;4288118;33;20177;-70
2021/01/19 02:47:38;;;;;;;144.20;39.27;;;-13.40;99.90;;;;;;4290582;33;20170;-71
2021/01/19 02:50:15;;;;;;;138.93;40.20;;;-13.40;99.90;;;;;;4290634;33;20153;-70
2021/01/19 02:56:44;;;;;;;143.27;38.87;;;-13.40;99.90;;;;;;4246541;33;20187;-70
2021/01/19 02:59:35;;;;;;;133.47;37.93;;;-13.20;99.90;;;;;;4242049;33;20510;-70
2021/01/19 03:02:38;;;;;;;139.63;40.83;;;-13.10;99.90;;;;;;4246977;33;20159;-70
2021/01/19 03:05:53;;;;;;;134.90;42.07;;;-13.10;99.90;;;;;;4238678;33;20186;-70
2021/01/19 03:09:21;;;;;;;136.87;40.60;;;-13.00;99.90;;;;;;4251256;33;20198;-70
2021/01/19 03:12:33;;;;;;;129.93;38.03;;;-13.10;99.90;;;;;;4261302;33;20170;-70
2021/01/19 03:15:27;;;;;;;131.03;37.37;;;-13.00;99.90;;;;;;4249252;33;20324;-70
2021/01/19 03:18:19;;;;;;;136.80;39.87;;;-12.90;99.90;;;;;;4261760;33;20171;-70
2021/01/19 03:21:15;;;;;;;144.53;40.73;;;-12.90;99.90;;;;;;4205450;34;20164;-70
2021/01/19 03:23:52;;;;;;;144.20;40.30;;;-12.80;99.90;;;;;;4207347;34;20242;-70
2021/01/19 03:26:24;;;;;;;142.97;41.20;;;-12.70;99.90;;;;;;4233540;34;20193;-70
2021/01/19 03:28:53;;;;;;;133.70;39.90;;;-12.60;99.90;;;;;;4233902;34;20227;-70
2021/01/19 03:31:23;;;;;;;141.80;39.70;;;-12.50;99.90;;;;;;4233163;33;20163;-70
2021/01/19 03:34:50;;;;;;;140.97;41.77;;;-12.50;99.90;;;;;;4247017;33;20543;-70
2021/01/19 03:37:21;;;;;;;143.57;40.70;;;-12.40;99.90;;;;;;4261195;33;20286;-71
2021/01/19 03:39:49;;;;;;;153.33;42.00;;;-12.40;99.90;;;;;;4260852;33;20193;-71
2021/01/19 03:42:16;;;;;;;147.30;43.67;;;-12.40;99.90;;;;;;4261118;33;20162;-71
2021/01/19 03:44:55;;;;;;;134.23;40.97;;;-12.30;99.90;;;;;;4261348;33;20154;-71
2021/01/19 03:47:25;;;;;;;143.13;41.40;;;-12.30;99.90;;;;;;4267741;33;20146;-71
2021/01/19 03:49:55;;;;;;;155.80;43.57;;;-12.30;99.90;;;;;;4290072;33;20567;-70
2021/01/19 03:52:22;;;;;;;152.27;43.10;;;-12.40;99.90;;;;;;4290110;33;20157;-70
2021/01/19 03:54:53;;;;;;;137.60;41.53;;;-12.30;99.90;;;;;;4290679;33;20158;-70
2021/01/19 03:57:20;;;;;;;138.13;40.30;;;-12.30;99.90;;;;;;4306655;33;20371;-69
2021/01/19 03:59:47;;;;;;;142.93;40.23;;;-12.40;99.90;;;;;;4349531;33;20180;-72
2021/01/19 04:02:18;;;;;;;140.03;40.30;;;-12.30;99.90;;;;;;4350814;33;20219;-71
2021/01/19 04:04:45;;;;;;;151.40;43.27;;;-12.30;99.90;;;;;;4349595;33;20432;-71
2021/01/19 04:07:12;;;;;;;145.63;42.67;;;-12.20;99.90;;;;;;4349404;33;20153;-71
2021/01/19 04:09:39;;;;;;;156.67;41.47;;;-12.20;99.90;;;;;;4349659;33;20195;-71
2021/01/19 04:12:06;;;;;;;162.40;44.70;;;-12.20;99.90;;;;;;4349790;33;20145;-71
2021/01/19 04:14:36;;;;;;;153.23;44.50;;;-12.10;99.90;;;;;;4349837;33;20175;-71
2021/01/19 04:17:04;;;;;;;151.10;42.57;;;-12.10;99.90;;;;;;4349700;33;20516;-71
2021/01/19 04:19:31;;;;;;;159.60;42.97;;;-12.10;99.90;;;;;;4349226;33;20168;-70
2021/01/19 04:21:58;;;;;;;134.93;41.17;;;-12.10;99.90;;;;;;4350015;33;20235;-70
2021/01/19 04:24:25;;;;;;;138.57;42.13;;;-12.10;99.90;;;;;;4349693;33;20164;-70
2021/01/19 04:26:52;;;;;;;159.87;43.67;;;-12.30;99.90;;;;;;4350597;33;20153;-70
2021/01/19 04:29:19;;;;;;;159.17;42.37;;;-12.10;99.90;;;;;;4336349;33;20189;-70
2021/01/19 04:31:55;;;;;;;157.13;42.63;;;-12.10;99.90;;;;;;4349875;33;20198;-69
2021/01/19 04:34:23;;;;;;;152.63;42.47;;;-12.00;99.90;;;;;;4349986;33;20214;-69
2021/01/19 04:37:01;;;;;;;134.57;42.33;;;-12.00;99.90;;;;;;4350372;33;20140;-68
2021/01/19 04:39:34;;;;;;;153.43;44.00;;;-11.90;99.90;;;;;;4349553;33;20191;-70
2021/01/19 04:42:01;;;;;;;140.57;42.40;;;-11.90;99.90;;;;;;4349516;33;20176;-69
2021/01/19 04:44:33;;;;;;;145.77;43.43;;;-11.90;99.90;;;;;;4349410;33;20152;-69
2021/01/19 04:47:01;;;;;;;148.57;44.23;;;-11.80;99.90;;;;;;4350779;33;20261;-69
2021/01/19 04:49:29;;;;;;;144.03;44.57;;;-11.90;99.90;;;;;;4350609;33;20218;-68
2021/01/19 04:52:03;;;;;;;156.87;44.30;;;-11.90;99.90;;;;;;4349119;33;20161;-69
2021/01/19 04:54:41;;;;;;;151.80;43.80;;;-11.80;99.90;;;;;;4349670;33;20528;-70
2021/01/19 04:57:24;;;;;;;151.50;44.00;;;-11.80;99.90;;;;;;4349502;33;20207;-70
2021/01/19 05:00:00;;;;;;;151.43;42.10;;;-11.70;99.90;;;;;;4349197;33;20148;-70
2021/01/19 05:02:40;;;;;;;135.20;40.50;;;-11.70;99.90;;;;;;4348651;33;20231;-70
2021/01/19 05:05:23;;;;;;;151.13;39.73;;;-11.70;99.90;;;;;;4349372;33;20152;-70
2021/01/19 05:08:17;;;;;;;136.80;40.70;;;-11.70;99.90;;;;;;4348820;33;20202;-70
2021/01/19 05:11:00;;;;;;;125.57;39.07;;;-11.60;99.90;;;;;;4349560;33;20467;-69
2021/01/19 05:13:50;;;;;;;135.93;39.80;;;-11.50;99.90;;;;;;4348695;33;20165;-69
2021/01/19 05:16:23;;;;;;;142.20;41.30;;;-11.50;99.90;;;;;;4350117;33;20415;-69
2021/01/19 05:18:51;;;;;;;158.93;43.10;;;-11.60;99.90;;;;;;4348781;33;20168;-69
2021/01/19 05:21:19;;;;;;;148.63;43.43;;;-11.50;99.90;;;;;;4349970;33;20183;-69
2021/01/19 05:23:47;;;;;;;146.53;41.53;;;-11.50;99.90;;;;;;4351774;33;20198;-69
2021/01/19 05:26:17;;;;;;;155.70;41.27;;;-11.40;99.90;;;;;;4351674;33;20164;-69
2021/01/19 05:29:05;;;;;;;153.33;42.23;;;-11.40;99.90;;;;;;4351699;33;20156;-69
2021/01/19 05:31:50;;;;;;;148.00;42.27;;;-11.40;99.90;;;;;;4353171;33;20187;-69
2021/01/19 05:34:40;;;;;;;137.03;41.20;;;-11.30;99.90;;;;;;4351611;33;20168;-68
2021/01/19 05:37:08;;;;;;;140.00;41.23;;;-11.10;99.90;;;;;;4351713;33;20234;-69
2021/01/19 05:39:45;;;;;;;140.57;41.10;;;-11.10;99.90;;;;;;4351628;33;20155;-69
2021/01/19 05:42:23;;;;;;;134.50;40.90;;;-11.10;99.90;;;;;;4352562;33;20179;-68
2021/01/19 05:45:23;;;;;;;144.17;40.30;;;-11.00;99.90;;;;;;4350208;33;20479;-69
2021/01/19 05:47:50;;;;;;;147.50;42.47;;;-11.00;99.90;;;;;;4351532;33;20160;-69
2021/01/19 05:50:20;;;;;;;145.80;42.10;;;-10.90;99.90;;;;;;4352004;33;20348;-69
2021/01/19 05:52:51;;;;;;;137.33;42.80;;;-10.90;99.90;;;;;;4352021;33;20148;-69
2021/01/19 05:55:32;;;;;;;149.90;43.07;;;-11.00;99.90;;;;;;4351482;33;20184;-69
2021/01/19 05:58:17;;;;;;;139.03;39.57;;;-10.90;99.90;;;;;;4351535;33;20144;-69
2021/01/19 06:03:56;;;;;;;134.37;40.83;;;-10.90;99.90;;;;;;4351643;33;20425;-69
2021/01/19 06:06:26;;;;;;;135.00;41.67;;;-10.90;99.90;;;;;;4351227;33;20153;-69
2021/01/19 06:09:14;;;;;;;127.97;40.23;;;-10.80;99.90;;;;;;4352164;33;20226;-69
2021/01/19 06:11:53;;;;;;;149.70;41.40;;;-10.80;99.90;;;;;;4351211;33;20168;-69
2021/01/19 06:14:32;;;;;;;142.97;41.50;;;-10.70;99.90;;;;;;4353177;33;20152;-69
2021/01/19 06:17:16;;;;;;;147.33;41.80;;;-10.60;99.90;;;;;;4351564;33;20196;-69
2021/01/19 06:20:00;;;;;;;143.47;41.23;;;-10.50;99.90;;;;;;4351601;33;20168;-69
2021/01/19 06:22:28;;;;;;;144.20;40.53;;;-10.40;99.90;;;;;;4350972;33;20160;-69
2021/01/19 06:25:03;;;;;;;141.43;41.63;;;-10.30;99.90;;;;;;4351580;33;20565;-69
2021/01/19 06:31:24;;;;;;;132.40;39.50;;;-10.20;99.90;;;;;;4310915;33;20234;-69
2021/01/19 06:34:06;;;;;;;141.27;38.93;;;-10.10;99.90;;;;;;4281945;33;20189;-69
2021/01/19 06:37:08;;;;;;;135.00;41.27;;;-10.20;99.90;;;;;;4305633;33;20154;-69
2021/01/19 06:43:05;;;;;;;140.60;40.57;;;-10.10;99.90;;;;;;4304782;33;20291;-69
2021/01/19 06:45:57;;;;;;;133.97;39.70;;;-10.20;99.90;;;;;;4304614;33;20212;-69
2021/01/19 06:48:36;;;;;;;140.60;40.17;;;-10.10;99.90;;;;;;4304405;33;20197;-69
2021/01/19 06:51:11;;;;;;;150.13;41.50;;;-10.00;99.90;;;;;;4304456;33;20154;-71
2021/01/19 06:54:09;;;;;;;128.27;40.43;;;-10.00;99.90;;;;;;4288745;33;20486;-68
2021/01/19 06:57:06;;;;;;;142.13;40.83;;;-10.10;99.90;;;;;;4304352;33;20158;-68
2021/01/19 07:00:11;;;;;;;141.90;41.03;;;-9.90;99.90;;;;;;4305377;33;20419;-68
2021/01/19 07:02:57;;;;;;;142.53;43.10;;;-9.90;99.90;;;;;;4303514;33;20277;-69
2021/01/19 07:05:24;;;;;;;147.37;41.93;;;-10.00;99.90;;;;;;4304760;33;20183;-69
2021/01/19 07:08:00;;;;;;;144.47;40.87;;;-9.90;99.90;;;;;;4304231;33;20153;-69
2021/01/19 07:10:46;;;;;;;128.57;39.63;;;-9.90;99.90;;;;;;4311076;33;20187;-69
2021/01/19 07:13:21;;;;;;;137.13;41.10;;;-9.80;99.90;;;;;;4350798;33;20175;-68
2021/01/19 07:15:55;;;;;;;143.43;42.90;;;-9.70;99.90;;;;;;4350996;33;20509;-70
2021/01/19 07:18:58;;;;;;;153.43;42.13;;;-9.70;99.90;;;;;;4350013;33;20207;-69
2021/01/19 07:21:57;;;;;;;143.17;42.57;;;-9.80;99.90;;;;;;4349057;33;20199;-69
2021/01/19 07:24:46;;;;;;;147.07;42.83;;;-9.80;99.90;;;;;;4304776;33;20205;-70
2021/01/19 07:27:25;;;;;;;144.80;40.63;;;-9.90;99.90;;;;;;4304434;33;20186;-69
2021/01/19 07:29:59;;;;;;;139.57;42.10;;;-9.80;99.90;;;;;;4304646;33;20165;-69
2021/01/19 07:32:31;;;;;;;139.00;42.10;;;-9.70;99.90;;;;;;4304534;33;20214;-69
2021/01/19 07:34:59;;;;;;;140.47;41.90;;;-9.70;99.90;;;;;;4304340;33;20157;-69
2021/01/19 07:37:30;;;;;;;152.63;45.43;;;-9.60;99.90;;;;;;4305030;33;20181;-70
2021/01/19 07:40:17;;;;;;;137.97;42.60;;;-9.60;99.90;;;;;;4302476;33;20195;-69
2021/01/19 07:42:48;;;;;;;157.07;46.07;;;-9.60;99.90;;;;;;4304439;33;20180;-69
2021/01/19 07:45:16;;;;;;;152.27;43.93;;;-9.70;99.90;;;;;;4303620;33;20471;-69
2021/01/19 07:48:07;;;;;;;151.33;44.07;;;-9.70;99.90;;;;;;4302025;33;20149;-67
2021/01/19 07:51:13;;;;;;;143.37;44.43;;;-9.60;99.90;;;;;;4293440;33;20605;-70
2021/01/19 07:54:08;;;;;;;135.93;41.30;;;-9.40;99.90;;;;;;4304118;33;20183;-69
2021/01/19 07:56:42;;;;;;;139.17;42.30;;;-9.40;99.90;;;;;;4294035;33;20329;-69
2021/01/19 08:03:10;;;;;;;137.80;43.07;;;-9.50;99.90;;;;;;4259797;33;20180;-70
2021/01/19 08:05:55;;;;;;;143.10;43.57;;;-9.40;99.90;;;;;;4290141;33;20161;-69
2021/01/19 08:09:09;;;;;;;145.50;42.87;;;-9.30;99.90;;;;;;4289668;33;20205;-70
2021/01/19 08:12:16;;;;;;;143.13;42.47;;;-9.40;99.90;;;;;;4260510;33;20191;-70
2021/01/19 08:15:19;;;;;;;140.10;42.30;;;-9.20;99.90;;;;;;4259298;33;20231;-69
2021/01/19 08:18:17;;;;;;;148.67;42.73;;;-9.00;99.90;;;;;;4211506;33;20481;-69
2021/01/19 08:21:13;;;;;;;155.50;47.27;;;-8.80;99.90;;;;;;4231463;33;20185;-69
2021/01/19 08:23:41;;;;;;;142.90;44.37;;;-8.70;99.90;;;;;;4233046;33;20167;-70
2021/01/19 08:26:19;;;;;;;153.87;45.70;;;-8.60;99.90;;;;;;4232713;33;20554;-70
2021/01/19 08:37:05;;;;;;;149.60;44.50;;;-8.50;99.90;;;;;;4176796;34;20214;-70
2021/01/19 08:40:57;;;;;;;145.10;45.13;;;-8.40;99.90;;;;;;4176804;34;20156;-70
2021/01/19 08:43:54;;;;;;;148.60;45.77;;;-8.20;99.90;;;;;;4192554;34;20236;-70
2021/01/19 08:47:16;;;;;;;145.47;43.50;;;-8.10;99.90;;;;;;4194176;34;20159;-70
2021/01/19 08:50:41;;;;;;;142.17;43.07;;;-8.10;99.90;;;;;;4176416;34;20214;-70
2021/01/19 08:56:31;;;;;;;146.90;44.00;;;-8.30;99.90;;;;;;4232307;33;20158;-69
2021/01/19 08:59:23;;;;;;;144.30;45.43;;;-8.30;99.90;;;;;;4231962;34;20327;-70
2021/01/19 09:02:15;;;;;;;139.33;46.57;;;-8.30;99.90;;;;;;4203887;34;20232;-70
2021/01/19 09:04:57;;;;;;;146.20;46.50;;;-8.20;99.90;;;;;;4227892;34;20541;-70
2021/01/19 09:07:29;;;;;;;158.63;47.97;;;-8.10;99.90;;;;;;4260735;33;20188;-71
2021/01/19 09:09:56;;;;;;;152.90;45.67;;;-8.20;99.90;;;;;;4275483;33;20146;-73
2021/01/19 09:12:23;;;;;;;150.73;48.07;;;-8.20;99.90;;;;;;4274980;33;20201;-74
2021/01/19 09:15:00;;;;;;;149.73;47.20;;;-8.30;99.90;;;;;;4274765;33;20177;-72
2021/01/19 09:17:28;;;;;;;153.73;45.23;;;-8.20;99.90;;;;;;4280760;33;20184;-73
2021/01/19 09:20:05;;;;;;;160.73;48.73;;;-8.10;99.90;;;;;;4318089;33;20188;-74
2021/01/19 09:22:32;;;;;;;148.23;47.37;;;-8.10;99.90;;;;;;4317772;33;20148;-72
2021/01/19 09:24:59;;;;;;;164.60;48.10;;;-8.10;99.90;;;;;;4318582;33;20270;-71
2021/01/19 09:27:26;;;;;;;150.43;47.27;;;-8.00;99.90;;;;;;4317400;33;20153;-71
2021/01/19 09:30:11;;;;;;;160.97;48.73;;;-8.00;99.90;;;;;;4316921;33;20205;-71
2021/01/19 09:32:43;;;;;;;149.57;48.93;;;-7.90;99.90;;;;;;4341148;33;20156;-71
2021/01/19 09:35:15;;;;;;;164.40;50.17;;;-7.80;99.90;;;;;;4349096;33;20195;-72
2021/01/19 09:37:42;;;;;;;161.10;47.73;;;-7.60;99.90;;;;;;4349132;33;20148;-71
2021/01/19 09:40:10;;;;;;;160.17;49.43;;;-7.50;99.90;;;;;;4349764;33;20260;-71
2021/01/19 09:42:39;;;;;;;157.70;47.23;;;-7.70;99.90;;;;;;4348861;33;20164;-71
2021/01/19 09:45:11;;;;;;;161.80;48.33;;;-7.70;99.90;;;;;;4349071;33;20203;-71
2021/01/19 09:47:41;;;;;;;154.53;48.40;;;-7.60;99.90;;;;;;4348996;33;20173;-71
2021/01/19 09:50:11;;;;;;;153.73;49.10;;;-7.50;99.90;;;;;;4348873;33;20169;-71
2021/01/19 09:52:45;;;;;;;157.57;50.37;;;-7.40;99.90;;;;;;4349441;33;20199;-71
2021/01/19 09:55:14;;;;;;;143.77;46.57;;;-7.40;99.90;;;;;;4348951;33;20203;-71
2021/01/19 09:57:41;;;;;;;157.77;49.50;;;-7.20;99.90;;;;;;4349903;33;20164;-71
2021/01/19 10:00:10;;;;;;;162.23;49.83;;;-7.20;99.90;;;;;;4348789;33;20157;-71
2021/01/19 10:02:39;;;;;;;167.53;51.10;;;-7.00;99.90;;;;;;4348792;33;20152;-71
2021/01/19 10:05:07;;;;;;;162.67;51.93;;;-7.00;99.90;;;;;;4348312;33;20152;-71
2021/01/19 10:07:34;;;;;;;171.13;51.00;;;-7.00;99.90;;;;;;4350027;33;20357;-71
2021/01/19 10:10:12;;;;;;;156.93;49.50;;;-6.90;99.90;;;;;;4351013;33;20219;-72
2021/01/19 10:12:40;;;;;;;172.03;51.17;;;-6.90;99.90;;;;;;4351551;33;20183;-72
2021/01/19 10:15:09;;;;;;;154.37;50.20;;;-6.80;99.90;;;;;;4351457;33;20148;-72
2021/01/19 10:17:36;;;;;;;150.87;48.70;;;-6.70;99.90;;;;;;4351468;33;20156;-72
2021/01/19 10:20:15;;;;;;;160.67;50.00;;;-6.60;99.90;;;;;;4351386;33;20168;-72
2021/01/19 10:22:48;;;;;;;158.67;51.30;;;-6.60;99.90;;;;;;4351403;33;20164;-72
2021/01/19 10:25:29;;;;;;;159.20;49.93;;;-6.70;99.90;;;;;;4352093;33;20427;-72
2021/01/19 10:28:00;;;;;;;155.53;49.43;;;-6.70;99.90;;;;;;4352441;33;20452;-72
2021/01/19 10:30:40;;;;;;;165.00;49.07;;;-6.60;99.90;;;;;;4351607;33;20215;-72
2021/01/19 10:33:07;;;;;;;158.63;49.60;;;-6.80;99.90;;;;;;4353331;33;20505;-72
2021/01/19 10:35:36;;;;;;;158.67;50.57;;;-6.70;99.90;;;;;;4350743;33;20164;-72
2021/01/19 10:38:06;;;;;;;154.23;50.10;;;-6.60;99.90;;;;;;4351152;33;20153;-72
2021/01/19 10:40:34;;;;;;;158.67;50.77;;;-6.50;99.90;;;;;;4351136;33;20144;-71
2021/01/19 10:43:02;;;;;;;157.10;50.33;;;-6.40;99.90;;;;;;4351339;33;20179;-72
2021/01/19 10:45:32;;;;;;;157.20;51.23;;;-6.40;99.90;;;;;;4351273;33;20176;-73
2021/01/19 10:48:01;;;;;;;147.77;48.83;;;-6.40;99.90;;;;;;4350428;33;20200;-72
2021/01/19 10:50:32;;;;;;;147.73;49.90;;;-6.30;99.90;;;;;;4339025;33;20529;-71
2021/01/19 10:53:04;;;;;;;159.23;50.67;;;-6.20;99.90;;;;;;4351660;33;20191;-72
2021/01/19 10:55:34;;;;;;;160.27;50.13;;;-6.20;99.90;;;;;;4350987;33;20199;-71
2021/01/19 10:58:04;;;;;;;153.57;49.33;;;-6.10;99.90;;;;;;4350927;33;20271;-71
2021/01/19 11:00:33;;;;;;;151.50;49.03;;;-6.10;99.90;;;;;;4350926;33;20463;-71
2021/01/19 11:03:00;;;;;;;153.60;50.60;;;-6.00;99.90;;;;;;4350777;33;20207;-71
2021/01/19 11:05:27;;;;;;;166.30;52.77;;;-5.90;99.90;;;;;;4350813;33;20149;-72
2021/01/19 11:07:55;;;;;;;163.00;52.50;;;-5.80;99.90;;;;;;4350699;33;20190;-71
2021/01/19 11:10:26;;;;;;;166.07;52.87;;;-5.80;99.90;;;;;;4350821;33;20200;-72
2021/01/19 11:12:54;;;;;;;155.97;51.20;;;-5.70;99.90;;;;;;4350294;33;20156;-72
2021/01/19 11:15:23;;;;;;;154.47;50.00;;;-5.80;99.90;;;;;;4350741;33;20171;-72
2021/01/19 11:17:51;;;;;;;155.80;51.40;;;-5.70;99.90;;;;;;4352144;33;20572;-73
2021/01/19 11:20:19;;;;;;;157.23;50.37;;;-5.70;99.90;;;;;;4349503;33;20537;-72
2021/01/19 11:22:48;;;;;;;148.83;50.77;;;-5.70;99.90;;;;;;4351252;33;20178;-72
2021/01/19 11:25:16;;;;;;;149.50;49.90;;;-5.60;99.90;;;;;;4350168;33;20148;-74
2021/01/19 11:27:48;;;;;;;161.20;50.33;;;-5.70;99.90;;;;;;4350139;33;20214;-70
2021/01/19 11:30:15;;;;;;;149.37;50.17;;;-5.70;99.90;;;;;;4350614;33;20195;-72
2021/01/19 11:32:42;;;;;;;152.33;50.07;;;-5.70;99.90;;;;;;4351531;33;20422;-72
2021/01/19 11:35:09;;;;;;;155.03;50.77;;;-5.50;99.90;;;;;;4350068;33;20180;-72
2021/01/19 11:37:36;;;;;;;160.93;51.00;;;-5.50;99.90;;;;;;4350502;33;20191;-73
2021/01/19 11:40:03;;;;;;;149.67;50.80;;;-5.50;99.90;;;;;;4350736;33;20458;-72
2021/01/19 11:42:29;;;;;;;157.53;49.80;;;-5.50;99.90;;;;;;4350202;33;20203;-73
2021/01/19 11:44:56;;;;;;;151.33;50.90;;;-5.30;99.90;;;;;;4350196;33;20144;-74
2021/01/19 11:47:22;;;;;;;151.33;51.53;;;-5.30;99.90;;;;;;4350095;33;20194;-73
2021/01/19 11:49:49;;;;;;;148.70;49.00;;;-5.20;99.90;;;;;;4351186;33;20235;-75
2021/01/19 11:52:18;;;;;;;156.60;50.40;;;-5.10;99.90;;;;;;4350781;33;20156;-73
2021/01/19 11:54:44;;;;;;;154.40;50.60;;;-5.10;99.90;;;;;;4350268;33;20166;-74
2021/01/19 11:57:11;;;;;;;156.97;50.30;;;-5.30;99.90;;;;;;4349605;33;20199;-74
2021/01/19 11:59:37;;;;;;;158.87;51.73;;;-5.30;99.90;;;;;;4349726;33;20152;-74
2021/01/19 12:02:04;;;;;;;141.07;50.40;;;-5.20;99.90;;;;;;4350952;33;20171;-73
2021/01/19 12:04:31;;;;;;;157.43;51.63;;;-5.10;99.90;;;;;;4350713;33;20436;-73
2021/01/19 12:07:01;;;;;;;145.17;50.10;;;-5.00;99.90;;;;;;4349619;33;20446;-73
2021/01/19 12:09:28;;;;;;;147.80;50.53;;;-4.90;99.90;;;;;;4349818;33;20228;-73
2021/01/19 12:11:55;;;;;;;156.20;52.90;;;-4.80;99.90;;;;;;4349757;33;20156;-73
2021/01/19 12:14:22;;;;;;;145.50;51.10;;;-4.80;99.90;;;;;;4349708;33;20206;-73
2021/01/19 12:16:57;;;;;;;154.13;49.90;;;-4.70;99.90;;;;;;4349883;33;20187;-74
2021/01/19 12:19:25;;;;;;;152.93;50.60;;;-4.60;99.90;;;;;;4350078;33;20207;-73
2021/01/19 12:21:56;;;;;;;149.87;50.20;;;-4.60;99.90;;;;;;4349698;33;20452;-74
2021/01/19 12:24:24;;;;;;;143.67;49.30;;;-4.60;99.90;;;;;;4349699;33;20147;-72
2021/01/19 12:26:56;;;;;;;145.63;51.07;;;-4.70;99.90;;;;;;4350903;33;20189;-73
2021/01/19 12:29:25;;;;;;;146.37;51.37;;;-4.60;99.90;;;;;;4350748;33;20529;-73
2021/01/19 12:31:52;;;;;;;150.53;50.90;;;-4.70;99.90;;;;;;4348953;33;20521;-72
2021/01/19 12:34:19;;;;;;;152.27;51.73;;;-4.60;99.90;;;;;;4350044;33;20214;-73
2021/01/19 12:36:47;;;;;;;146.43;51.03;;;-4.50;99.90;;;;;;4349822;33;20152;-73
2021/01/19 12:39:16;;;;;;;154.23;50.33;;;-4.50;99.90;;;;;;4348299;33;20152;-73
2021/01/19 12:41:43;;;;;;;153.97;51.87;;;-4.40;99.90;;;;;;4346380;33;20157;-72
2021/01/19 12:44:09;;;;;;;160.97;50.87;;;-4.30;99.90;;;;;;4348883;33;20406;-72
2021/01/19 12:46:37;;;;;;;146.77;51.27;;;-4.30;99.90;;;;;;4348965;33;20228;-72
2021/01/19 12:49:04;;;;;;;151.93;49.40;;;-4.40;99.90;;;;;;4350163;33;20475;-73
2021/01/19 12:51:31;;;;;;;140.63;49.43;;;-4.50;99.90;;;;;;4349789;33;20171;-74
2021/01/19 12:53:57;;;;;;;146.37;49.20;;;-4.70;99.90;;;;;;4348648;33;20152;-72
2021/01/19 12:56:24;;;;;;;143.10;51.07;;;-4.70;99.90;;;;;;4349099;33;20497;-74
2021/01/19 12:58:51;;;;;;;151.30;49.47;;;-4.60;99.90;;;;;;4350635;33;20295;-72
2021/01/19 13:01:18;;;;;;;145.13;50.17;;;-4.70;99.90;;;;;;4349207;33;20144;-73
2021/01/19 13:03:46;;;;;;;158.53;50.20;;;-4.70;99.90;;;;;;4349300;33;20160;-72
2021/01/19 13:06:12;;;;;;;154.77;51.80;;;-4.80;99.90;;;;;;4336460;33;20629;-72
2021/01/19 13:08:39;;;;;;;147.33;51.57;;;-4.70;99.90;;;;;;4350594;33;20369;-73
2021/01/19 13:11:06;;;;;;;143.53;50.00;;;-4.80;99.90;;;;;;4349764;33;20195;-73
2021/01/19 13:13:33;;;;;;;147.93;50.70;;;-4.90;99.90;;;;;;4350364;33;20172;-73
2021/01/19 13:16:00;;;;;;;151.10;50.23;;;-5.00;99.90;;;;;;4349131;33;20184;-73
2021/01/19 13:18:27;;;;;;;142.30;49.63;;;-5.10;99.90;;;;;;4348849;33;20204;-75
2021/01/19 13:20:54;;;;;;;152.30;50.40;;;-5.10;99.90;;;;;;4350387;33;20152;-74
2021/01/19 13:23:20;;;;;;;159.00;51.97;;;-5.10;99.90;;;;;;4348883;33;20231;-75